ESCF/LPI METAR and TAF weather

Enter ICAO airport designator
Station Type Date Time Source
ESCF METAR 2018/01/23 01:20 UTC NOAA

ESCF 230120Z AUTO 20005KT 9999 OVC012/// M04/M04 Q1018


Station Type Date Time Source
ESCF Decoded METAR 2018/01/23 01:20 UTC NOAA

Linkoping / Malmen, Sweden (ESCF) 58-24N 015-31E 117M
Jan 22, 2018 - 08:20 PM EST / 2018.01.23 0120 UTC
Wind: from the SSW (200 degrees) at 6 MPH (5 KT):0
Visibility: greater than 7 mile(s):0
Sky conditions: overcast
Temperature: 24 F (-4 C)
Windchill: 17 F (-8 C):1
Dew Point: 24 F (-4 C)
Relative Humidity: 100%
Pressure (altimeter): 30.06 in. Hg (1018 hPa)
ob: ESCF 230120Z AUTO 20005KT 9999 OVC012/// M04/M04 Q1018
cycle: 1

Station Type Date Time Source
ESCF TAF UTC NOAA

Error!


Example: see airport list